createdAt,value
2023-04-04T00:01:29.320Z,1.97
2023-04-04T00:04:36.751Z,1.83
2023-04-04T00:07:39.329Z,1.59
2023-04-04T00:10:43.219Z,1.44
2023-04-04T00:14:06.072Z,1.34
2023-04-04T00:17:10.757Z,1.42
2023-04-04T00:20:17.640Z,1.38
2023-04-04T00:23:21.697Z,1.29
2023-04-04T00:26:26.813Z,1.16
2023-04-04T00:29:50.122Z,1.12
2023-04-04T00:32:54.283Z,1.17
2023-04-04T00:35:57.506Z,0.87
2023-04-04T00:39:08.982Z,1.04
2023-04-04T00:42:14.112Z,0.88
2023-04-04T00:45:41.446Z,0.96
2023-04-04T00:48:48.963Z,1.07
2023-04-04T00:51:55.420Z,1.10
2023-04-04T00:55:00.324Z,0.97
2023-04-04T00:58:06.605Z,0.79
2023-04-04T01:01:13.428Z,0.69
2023-04-04T01:04:19.102Z,0.53
2023-04-04T01:07:22.728Z,0.41
2023-04-04T01:10:25.886Z,0.43
2023-04-04T01:13:49.338Z,0.45
2023-04-04T01:17:14.873Z,0.30
2023-04-04T01:20:24.795Z,0.18
2023-04-04T01:24:04.786Z,0.11
2023-04-04T01:27:11.159Z,0.01
2023-04-04T01:30:16.585Z,0.01
2023-04-04T01:33:46.488Z,-0.15
2023-04-04T01:37:19.169Z,-0.07
2023-04-04T01:40:27.243Z,-0.21
2023-04-04T01:43:33.420Z,-0.22
2023-04-04T01:46:56.538Z,-0.34
2023-04-04T01:50:20.221Z,-0.31
2023-04-04T01:53:28.346Z,-0.41
2023-04-04T01:56:32.907Z,-0.44
2023-04-04T01:59:44.105Z,-0.44
2023-04-04T02:02:46.942Z,-0.44
2023-04-04T02:05:50.860Z,-0.54
2023-04-04T02:08:53.896Z,-0.44
2023-04-04T02:12:00.032Z,-0.56
2023-04-04T02:15:11.046Z,-0.60
2023-04-04T02:18:15.021Z,-0.78
2023-04-04T02:21:18.442Z,-0.72
2023-04-04T02:25:23.009Z,-0.84
2023-04-04T02:28:28.891Z,-0.87
2023-04-04T02:31:33.672Z,-0.89
2023-04-04T02:34:41.579Z,-0.85
2023-04-04T02:37:47.693Z,-0.92
2023-04-04T02:40:53.507Z,-1.03
2023-04-04T02:44:23.356Z,-0.82
2023-04-04T02:47:26.750Z,-0.94
2023-04-04T02:50:31.441Z,-1.11
2023-04-04T02:53:55.965Z,-1.08
2023-04-04T02:57:43.426Z,-1.02
2023-04-04T03:00:54.124Z,-1.10
2023-04-04T03:04:19.590Z,-1.15
2023-04-04T03:07:23.616Z,-1.26
2023-04-04T03:10:32.437Z,-1.33
2023-04-04T03:13:35.746Z,-1.40
2023-04-04T03:16:59.608Z,-1.46
2023-04-04T03:20:15.210Z,-1.27
2023-04-04T03:23:21.403Z,-1.16
2023-04-04T03:26:24.646Z,-1.41
2023-04-04T03:29:48.748Z,-1.44
2023-04-04T03:32:53.519Z,-1.40
2023-04-04T03:36:00.578Z,-1.53
2023-04-04T03:39:03.636Z,-1.45
2023-04-04T03:42:15.842Z,-1.35
2023-04-04T03:45:26.619Z,-1.38
2023-04-04T03:48:31.912Z,-1.53
2023-04-04T03:51:34.900Z,-1.55
2023-04-04T03:54:41.767Z,-1.42
2023-04-04T03:57:44.832Z,-1.48
2023-04-04T04:00:49.100Z,-1.66
2023-04-04T04:03:52.584Z,-1.77
2023-04-04T04:06:55.828Z,-1.68
2023-04-04T04:09:59.365Z,-1.66
2023-04-04T04:13:02.882Z,-1.58
2023-04-04T04:16:06.826Z,-1.60
2023-04-04T04:19:10.899Z,-1.60
2023-04-04T04:22:14.670Z,-1.52
2023-04-04T04:25:22.418Z,-1.58
2023-04-04T04:28:33.655Z,-1.49
2023-04-04T04:31:39.419Z,-1.56
2023-04-04T04:34:42.929Z,-1.47
2023-04-04T04:37:45.736Z,-1.52
2023-04-04T04:41:10.973Z,-1.41
2023-04-04T04:44:14.308Z,-1.47
2023-04-04T04:47:17.945Z,-1.23
2023-04-04T04:50:21.307Z,-1.20
2023-04-04T04:53:25.315Z,-1.11
2023-04-04T04:56:28.255Z,-1.05
2023-04-04T04:59:37.244Z,-1.04
2023-04-04T05:02:40.745Z,-0.81
2023-04-04T05:05:44.373Z,-0.73
2023-04-04T05:08:47.767Z,-0.59
2023-04-04T05:12:04.094Z,-0.74
2023-04-04T15:14:20.255Z,8.67
2023-04-04T15:17:23.299Z,8.89
2023-04-04T15:20:26.650Z,8.80
2023-04-04T15:23:29.857Z,8.90
2023-04-04T15:26:32.804Z,8.80
2023-04-04T15:29:36.300Z,8.54
2023-04-04T15:32:59.085Z,8.54
2023-04-04T15:36:02.204Z,8.46
2023-04-04T15:39:05.011Z,8.47
2023-04-04T15:42:07.999Z,8.44
2023-04-04T15:45:12.065Z,8.54
2023-04-04T15:48:15.631Z,8.45
2023-04-04T15:51:18.516Z,8.16
2023-04-04T15:54:21.593Z,7.97
2023-04-04T15:57:24.522Z,7.93
2023-04-04T16:00:28.960Z,7.83
2023-04-04T16:03:32.918Z,7.58
2023-04-04T16:06:37.827Z,7.46
2023-04-04T16:09:43.484Z,7.46
2023-04-04T16:12:46.262Z,7.48
2023-04-04T16:15:49.655Z,7.45
2023-04-04T16:18:52.312Z,7.31
2023-04-04T16:21:55.459Z,7.42
2023-04-04T16:24:58.241Z,7.35
2023-04-04T16:28:01.395Z,7.18
2023-04-04T16:31:04.493Z,7.38
2023-04-04T16:34:07.541Z,7.33
2023-04-04T16:37:12.049Z,7.16
2023-04-04T16:40:15.549Z,7.21
2023-04-04T16:43:18.325Z,7.18
2023-04-04T16:46:21.816Z,7.13
2023-04-04T16:49:24.615Z,7.08
2023-04-04T16:52:27.633Z,7.07
2023-04-04T16:55:33.569Z,6.81
2023-04-04T16:58:36.714Z,6.71
2023-04-04T17:01:39.528Z,6.65
2023-04-04T17:04:43.761Z,6.68
2023-04-04T17:07:47.293Z,6.52
2023-04-04T17:10:51.428Z,6.39
2023-04-04T17:13:54.770Z,6.32
2023-04-04T17:17:00.542Z,6.36
2023-04-04T17:20:05.275Z,6.50
2023-04-04T17:23:08.556Z,6.12
2023-04-04T17:26:11.604Z,6.29
2023-04-04T17:29:27.084Z,6.20
2023-04-04T17:32:31.408Z,6.01
2023-04-04T17:35:34.816Z,6.07
2023-04-04T17:38:40.207Z,6.01
